Time;durP1;ratioP1;P1;durP2;ratioP2;P2;SDS_P1;SDS_P2;PMS_P1;PMS_P2;Temp;Humidity;BMP_temperature;BMP_pressure;BME280_temperature;BME280_humidity;BME280_pressure;Samples;Min_cycle;Max_cycle;Signal;HPM_P1;HPM_P2
2022/07/30 00:01:50;;;;;;;1.95;1.20;;;15.70;99.90;;;;;;5056110;28;20443;-66
2022/07/30 00:04:16;;;;;;;1.80;1.40;;;15.80;99.90;;;;;;5074659;28;20051;-66
2022/07/30 00:06:41;;;;;;;2.60;1.13;;;15.70;99.90;;;;;;5074340;28;20041;-66
2022/07/30 00:09:07;;;;;;;3.17;1.20;;;15.60;99.90;;;;;;5091236;28;20052;-66
2022/07/30 00:11:33;;;;;;;2.17;1.20;;;15.60;99.90;;;;;;5073103;28;20048;-66
2022/07/30 00:13:58;;;;;;;2.22;1.33;;;15.60;99.90;;;;;;5073952;28;20091;-66
2022/07/30 00:16:24;;;;;;;2.03;1.40;;;15.60;99.90;;;;;;5072568;28;20078;-66
2022/07/30 00:18:50;;;;;;;1.90;1.30;;;15.50;99.90;;;;;;5056464;28;20401;-66
2022/07/30 00:21:15;;;;;;;2.00;1.20;;;15.50;99.90;;;;;;5056112;28;20028;-67
2022/07/30 00:23:41;;;;;;;1.73;1.20;;;15.60;99.90;;;;;;5045580;28;20455;-67
2022/07/30 00:26:06;;;;;;;1.50;1.20;;;15.50;99.90;;;;;;5056249;28;20036;-67
2022/07/30 00:28:32;;;;;;;2.72;1.40;;;15.60;99.90;;;;;;5057263;28;20041;-66
2022/07/30 00:30:57;;;;;;;2.42;1.48;;;15.50;99.90;;;;;;5057540;28;20036;-66
2022/07/30 00:33:23;;;;;;;2.10;1.55;;;15.50;99.90;;;;;;5055665;28;20515;-66
2022/07/30 00:35:49;;;;;;;4.03;1.67;;;15.50;99.90;;;;;;5052324;28;20631;-66
2022/07/30 00:38:14;;;;;;;3.20;2.10;;;15.40;99.90;;;;;;5055285;28;20106;-66
2022/07/30 00:40:40;;;;;;;5.78;2.75;;;15.40;99.90;;;;;;5070865;28;20068;-67
2022/07/30 00:43:05;;;;;;;3.78;2.03;;;15.30;99.90;;;;;;5057090;28;20107;-67
2022/07/30 00:45:33;;;;;;;4.95;2.85;;;15.30;99.90;;;;;;5073670;28;20091;-67
2022/07/30 00:48:00;;;;;;;6.35;2.70;;;15.30;99.90;;;;;;5072225;28;20045;-67
2022/07/30 00:50:26;;;;;;;4.78;2.80;;;15.00;99.90;;;;;;5072094;28;20044;-67
2022/07/30 00:52:52;;;;;;;7.00;3.60;;;15.00;99.90;;;;;;5073569;28;20102;-67
2022/07/30 00:55:17;;;;;;;7.65;3.53;;;15.00;99.90;;;;;;5056844;28;20032;-67
2022/07/30 00:57:43;;;;;;;6.00;2.55;;;15.00;99.90;;;;;;5072136;28;20045;-67
2022/07/30 01:00:12;;;;;;;5.13;2.03;;;15.00;99.90;;;;;;5054521;28;20037;-67
2022/07/30 01:02:38;;;;;;;4.40;2.30;;;15.00;99.90;;;;;;5056713;28;20036;-67
2022/07/30 01:05:05;;;;;;;3.38;1.83;;;15.10;99.90;;;;;;5056608;28;20043;-67
2022/07/30 01:07:31;;;;;;;4.28;2.00;;;15.10;99.90;;;;;;5069954;28;20041;-67
2022/07/30 01:09:56;;;;;;;4.28;1.98;;;15.00;99.90;;;;;;5061602;28;20035;-67
2022/07/30 01:12:25;;;;;;;4.72;2.38;;;15.00;99.90;;;;;;5036640;28;20572;-66
2022/07/30 01:14:51;;;;;;;5.55;3.05;;;15.00;99.90;;;;;;5069072;28;20052;-66
2022/07/30 01:17:17;;;;;;;5.20;3.17;;;14.90;99.90;;;;;;5072980;28;20052;-67
2022/07/30 01:19:47;;;;;;;6.40;2.92;;;14.80;99.90;;;;;;5073006;28;20400;-67
2022/07/30 01:22:24;;;;;;;5.95;3.58;;;14.70;99.90;;;;;;5055472;28;20400;-67
2022/07/30 01:25:02;;;;;;;4.22;1.80;;;14.70;99.90;;;;;;5072884;28;20048;-67
2022/07/30 01:27:33;;;;;;;3.92;2.53;;;14.60;99.90;;;;;;5066854;28;20408;-67
2022/07/30 01:30:02;;;;;;;3.83;1.90;;;14.60;99.90;;;;;;5072846;28;20040;-67
2022/07/30 01:32:31;;;;;;;3.05;1.95;;;14.70;99.90;;;;;;5061541;28;20040;-67
2022/07/30 01:34:58;;;;;;;3.30;2.22;;;14.70;99.90;;;;;;5052047;28;20442;-67
2022/07/30 01:37:25;;;;;;;2.80;2.00;;;14.70;99.90;;;;;;5052138;28;20048;-67
2022/07/30 01:39:52;;;;;;;4.18;2.17;;;14.60;99.90;;;;;;5036025;28;20033;-67
2022/07/30 01:42:19;;;;;;;4.28;2.28;;;14.50;99.90;;;;;;5036041;28;20044;-67
2022/07/30 01:44:47;;;;;;;2.88;2.03;;;14.50;99.90;;;;;;5068995;28;20055;-67
2022/07/30 01:47:15;;;;;;;4.35;2.30;;;14.30;99.90;;;;;;5055639;28;20051;-67
2022/07/30 01:49:42;;;;;;;3.55;2.20;;;14.40;99.90;;;;;;5068728;28;20382;-67
2022/07/30 01:52:09;;;;;;;5.15;3.00;;;14.30;99.90;;;;;;5034970;28;20045;-67
2022/07/30 01:54:37;;;;;;;4.78;2.67;;;14.20;99.90;;;;;;5052452;28;20099;-67
2022/07/30 01:57:04;;;;;;;3.60;2.40;;;14.20;99.90;;;;;;5052249;28;20072;-66
2022/07/30 01:59:33;;;;;;;4.95;2.72;;;14.20;99.90;;;;;;5035613;28;20076;-66
2022/07/30 02:01:59;;;;;;;5.47;3.25;;;14.10;99.90;;;;;;5041209;28;20045;-66
2022/07/30 02:04:26;;;;;;;5.22;2.90;;;14.10;99.90;;;;;;5036750;28;20046;-66
2022/07/30 02:07:24;;;;;;;3.33;2.50;;;14.00;99.90;;;;;;5014996;28;20067;-66
2022/07/30 02:10:00;;;;;;;3.13;2.20;;;14.00;99.90;;;;;;5030246;28;20049;-66
2022/07/30 02:12:29;;;;;;;4.72;2.78;;;14.00;99.90;;;;;;5015589;28;20510;-66
2022/07/30 02:15:18;;;;;;;5.15;3.20;;;14.00;99.90;;;;;;5032107;28;20056;-66
2022/07/30 02:17:55;;;;;;;4.63;2.60;;;13.90;99.90;;;;;;5041433;28;20076;-66
2022/07/30 02:20:23;;;;;;;2.95;2.17;;;13.90;99.90;;;;;;5035458;28;20036;-66
2022/07/30 02:22:51;;;;;;;3.58;2.70;;;13.90;99.90;;;;;;5051951;28;20037;-66
2022/07/30 02:25:19;;;;;;;4.93;3.08;;;14.00;99.90;;;;;;5051898;28;20493;-66
2022/07/30 02:27:50;;;;;;;3.75;2.17;;;14.00;99.90;;;;;;5034888;28;20485;-66
2022/07/30 02:30:16;;;;;;;2.35;1.80;;;14.10;99.90;;;;;;5051975;28;20037;-66
2022/07/30 02:32:43;;;;;;;4.30;2.30;;;14.00;99.90;;;;;;5052113;28;20079;-66
2022/07/30 02:35:22;;;;;;;5.32;2.60;;;14.00;99.90;;;;;;5035897;28;20063;-66
2022/07/30 02:37:51;;;;;;;3.42;2.40;;;13.90;99.90;;;;;;5034184;28;20045;-67
2022/07/30 02:40:18;;;;;;;6.03;2.70;;;13.80;99.90;;;;;;5054916;28;20477;-66
2022/07/30 02:42:48;;;;;;;4.20;2.67;;;13.80;99.90;;;;;;5051922;28;20435;-66
2022/07/30 02:45:19;;;;;;;3.70;2.45;;;13.80;99.90;;;;;;5051651;28;20119;-67
2022/07/30 02:47:48;;;;;;;3.33;2.42;;;13.70;99.90;;;;;;5043310;28;20138;-66
2022/07/30 02:50:16;;;;;;;3.40;2.33;;;13.60;99.90;;;;;;5046189;28;20492;-66
2022/07/30 02:52:43;;;;;;;3.92;2.47;;;13.50;99.90;;;;;;5052102;28;20056;-66
2022/07/30 02:55:11;;;;;;;4.90;3.17;;;13.40;99.90;;;;;;5035517;28;20049;-66
2022/07/30 02:57:40;;;;;;;5.90;3.70;;;13.40;99.90;;;;;;5033762;28;20071;-66
2022/07/30 03:00:07;;;;;;;6.95;3.58;;;13.40;99.90;;;;;;5051834;28;20113;-66
2022/07/30 03:02:34;;;;;;;5.22;3.30;;;13.30;99.90;;;;;;5051747;28;20508;-66
2022/07/30 03:05:03;;;;;;;5.00;3.20;;;13.30;99.90;;;;;;5056842;28;20052;-66
2022/07/30 03:07:30;;;;;;;4.88;2.60;;;13.30;99.90;;;;;;5025858;28;20044;-66
2022/07/30 03:09:58;;;;;;;4.80;2.97;;;13.40;99.90;;;;;;5053646;28;20489;-66
2022/07/30 03:12:27;;;;;;;4.57;3.00;;;13.40;99.90;;;;;;5031584;28;20109;-66
2022/07/30 03:14:54;;;;;;;6.10;3.60;;;13.30;99.90;;;;;;5037660;28;20053;-66
2022/07/30 03:17:22;;;;;;;4.30;2.70;;;13.30;99.90;;;;;;5050241;28;20048;-66
2022/07/30 03:19:49;;;;;;;2.47;1.90;;;13.30;99.90;;;;;;5036178;28;20055;-66
2022/07/30 03:22:16;;;;;;;2.35;1.80;;;13.30;99.90;;;;;;5033586;28;20080;-66
2022/07/30 03:24:44;;;;;;;2.78;1.90;;;13.30;99.90;;;;;;5035659;28;20066;-66
2022/07/30 03:27:10;;;;;;;4.97;2.90;;;13.30;99.90;;;;;;5035241;28;20056;-66
2022/07/30 03:29:38;;;;;;;3.45;2.42;;;13.30;99.90;;;;;;5034022;28;20045;-66
2022/07/30 03:32:05;;;;;;;4.85;3.00;;;13.20;99.90;;;;;;5048392;28;20108;-66
2022/07/30 03:34:34;;;;;;;8.15;3.72;;;13.20;99.90;;;;;;5054900;28;20420;-66
2022/07/30 03:37:03;;;;;;;7.03;3.67;;;13.20;99.90;;;;;;5052315;28;20238;-66
2022/07/30 03:39:33;;;;;;;6.53;3.75;;;13.20;99.90;;;;;;5038074;28;20489;-66
2022/07/30 03:42:00;;;;;;;7.45;4.70;;;13.10;99.90;;;;;;5041342;28;20111;-66
2022/07/30 03:44:26;;;;;;;6.75;4.32;;;13.10;99.90;;;;;;5048736;28;20037;-66
2022/07/30 03:46:53;;;;;;;6.82;4.30;;;13.10;99.90;;;;;;5036009;28;20109;-66
2022/07/30 03:49:21;;;;;;;7.25;4.25;;;13.10;99.90;;;;;;5050470;28;20135;-66
2022/07/30 03:51:48;;;;;;;7.05;3.88;;;13.00;99.90;;;;;;5059022;28;20159;-66
2022/07/30 03:54:15;;;;;;;7.28;4.60;;;13.00;99.90;;;;;;5029885;28;20041;-66
2022/07/30 03:56:41;;;;;;;6.90;4.32;;;13.00;99.90;;;;;;5051128;28;20091;-66
2022/07/30 03:59:08;;;;;;;7.82;4.80;;;13.00;99.90;;;;;;5057575;28;20105;-66
2022/07/30 04:01:34;;;;;;;8.07;4.70;;;13.00;99.90;;;;;;5047219;28;20127;-66
2022/07/30 04:04:04;;;;;;;7.75;4.57;;;13.00;99.90;;;;;;5035190;28;20682;-66
2022/07/30 04:06:30;;;;;;;7.13;4.43;;;13.00;99.90;;;;;;5051387;28;20036;-66
2022/07/30 04:08:55;;;;;;;7.65;4.40;;;13.00;99.90;;;;;;5021677;28;20041;-66
2022/07/30 04:11:21;;;;;;;7.10;4.90;;;13.10;99.90;;;;;;5035603;28;20036;-66
2022/07/30 04:13:47;;;;;;;6.90;4.22;;;13.10;99.90;;;;;;5031928;28;20049;-66
2022/07/30 04:16:24;;;;;;;6.63;4.63;;;13.10;99.90;;;;;;5035094;28;20138;-66
2022/07/30 04:18:54;;;;;;;6.93;4.88;;;13.20;99.90;;;;;;5033419;28;20847;-66
2022/07/30 04:21:23;;;;;;;7.88;4.95;;;13.20;99.90;;;;;;5036168;28;20038;-66
2022/07/30 04:23:49;;;;;;;7.90;4.55;;;13.20;99.90;;;;;;5034298;28;20037;-66
2022/07/30 04:26:16;;;;;;;7.40;4.50;;;13.10;99.90;;;;;;5034045;28;20397;-66
2022/07/30 04:28:42;;;;;;;7.45;4.03;;;13.20;99.90;;;;;;5019091;28;20044;-66
2022/07/30 04:31:10;;;;;;;8.55;4.38;;;13.20;99.90;;;;;;5041132;28;20059;-66
2022/07/30 04:33:35;;;;;;;6.45;3.70;;;13.20;99.90;;;;;;5040748;28;20046;-66
2022/07/30 04:36:06;;;;;;;5.90;3.83;;;13.20;99.90;;;;;;5051386;28;20045;-66
2022/07/30 04:38:31;;;;;;;6.63;3.60;;;13.20;99.90;;;;;;5056449;28;20485;-66
2022/07/30 04:40:57;;;;;;;7.30;4.75;;;13.20;99.90;;;;;;5038599;28;20040;-66
2022/07/30 04:43:23;;;;;;;6.55;4.40;;;13.20;99.90;;;;;;5047931;28;20094;-66
2022/07/30 04:45:48;;;;;;;8.65;5.00;;;13.10;99.90;;;;;;5049678;28;20545;-66
2022/07/30 04:48:14;;;;;;;7.57;5.00;;;13.10;99.90;;;;;;5033886;28;20044;-66
2022/07/30 04:50:42;;;;;;;8.15;4.65;;;13.10;99.90;;;;;;5041417;28;20086;-66
2022/07/30 04:53:08;;;;;;;8.75;5.25;;;13.10;99.90;;;;;;5034640;28;20068;-66
2022/07/30 04:55:34;;;;;;;7.57;4.90;;;13.10;99.90;;;;;;5037004;28;20102;-66
2022/07/30 04:58:01;;;;;;;6.88;4.57;;;13.10;99.90;;;;;;5040093;28;20511;-66
2022/07/30 05:00:28;;;;;;;6.97;4.53;;;13.10;99.90;;;;;;5042924;28;20028;-66
2022/07/30 05:02:55;;;;;;;7.10;4.43;;;13.10;99.90;;;;;;5047203;28;20044;-66
2022/07/30 05:05:23;;;;;;;8.52;5.45;;;13.20;99.90;;;;;;5033994;28;20060;-66
2022/07/30 05:07:49;;;;;;;8.10;4.72;;;13.20;99.90;;;;;;5034850;28;20049;-66
2022/07/30 05:10:18;;;;;;;7.82;4.85;;;13.30;99.90;;;;;;5024866;28;20048;-67
2022/07/30 05:12:44;;;;;;;8.50;4.88;;;13.30;99.90;;;;;;5032797;28;20591;-67
2022/07/30 05:15:10;;;;;;;11.20;4.57;;;13.40;99.90;;;;;;5035140;28;20056;-67
2022/07/30 05:17:36;;;;;;;7.32;4.53;;;13.40;99.90;;;;;;5034267;28;20068;-67
2022/07/30 05:20:03;;;;;;;7.78;4.55;;;13.40;99.90;;;;;;5033976;28;21532;-66
2022/07/30 05:22:29;;;;;;;9.35;6.15;;;13.30;99.90;;;;;;5039256;28;20461;-66
2022/07/30 05:24:56;;;;;;;8.60;6.68;;;13.40;99.90;;;;;;5034271;28;20048;-67
2022/07/30 05:27:21;;;;;;;8.98;6.63;;;13.40;99.90;;;;;;5031132;28;21574;-67
2022/07/30 05:29:47;;;;;;;9.13;6.90;;;13.50;99.90;;;;;;5034803;28;20570;-67
2022/07/30 05:32:13;;;;;;;10.70;7.60;;;13.50;99.90;;;;;;5023191;28;20536;-67
2022/07/30 05:34:38;;;;;;;10.48;7.95;;;13.60;99.90;;;;;;5038500;28;20048;-67
2022/07/30 05:37:05;;;;;;;10.57;8.18;;;13.70;99.90;;;;;;5031404;28;20423;-67
2022/07/30 05:39:30;;;;;;;11.35;8.30;;;13.80;99.90;;;;;;5056537;28;20049;-67
2022/07/30 05:41:56;;;;;;;10.23;8.20;;;13.90;99.90;;;;;;5053621;28;20041;-67
2022/07/30 05:44:21;;;;;;;13.75;8.85;;;14.00;99.90;;;;;;5032819;28;20076;-67
2022/07/30 05:46:48;;;;;;;14.05;8.90;;;14.20;99.90;;;;;;5033101;28;20049;-67
2022/07/30 05:49:14;;;;;;;12.43;9.35;;;14.30;99.90;;;;;;5036094;28;20067;-67
2022/07/30 05:51:40;;;;;;;11.00;8.98;;;14.40;99.90;;;;;;5042718;28;20599;-67
2022/07/30 05:54:06;;;;;;;13.02;9.43;;;14.50;99.90;;;;;;5041671;28;20037;-67
2022/07/30 05:56:31;;;;;;;15.38;10.27;;;14.60;99.90;;;;;;5043561;28;20044;-67
2022/07/30 05:58:57;;;;;;;13.93;10.85;;;14.70;99.90;;;;;;5038586;28;20033;-67
2022/07/30 06:01:23;;;;;;;13.35;11.63;;;14.80;99.90;;;;;;5060434;28;20569;-67
2022/07/30 06:03:48;;;;;;;16.70;13.18;;;14.90;99.90;;;;;;5043594;28;20489;-67
2022/07/30 06:06:14;;;;;;;17.35;12.88;;;15.00;99.90;;;;;;5045098;28;20497;-67
2022/07/30 06:08:40;;;;;;;14.27;12.40;;;15.20;99.90;;;;;;5054950;28;20043;-67
2022/07/30 06:11:07;;;;;;;15.07;13.15;;;15.30;99.90;;;;;;5053890;28;20408;-67
2022/07/30 06:13:33;;;;;;;15.38;12.13;;;15.50;99.90;;;;;;5053859;28;20053;-67
2022/07/30 06:15:59;;;;;;;14.85;11.88;;;15.70;99.90;;;;;;5071733;28;20037;-67
2022/07/30 06:18:25;;;;;;;15.38;12.82;;;15.80;99.90;;;;;;5040863;28;20442;-67
2022/07/30 06:20:53;;;;;;;13.93;11.30;;;16.00;99.90;;;;;;5056712;28;20033;-67
2022/07/30 06:23:19;;;;;;;15.32;11.18;;;16.20;99.90;;;;;;5051555;28;20048;-67
2022/07/30 06:25:47;;;;;;;14.40;11.20;;;16.40;99.90;;;;;;5050466;28;20097;-67
2022/07/30 06:28:13;;;;;;;13.45;10.43;;;16.50;99.90;;;;;;5048033;28;20045;-67
2022/07/30 06:30:39;;;;;;;13.02;9.73;;;16.60;99.90;;;;;;5056384;28;20489;-67
2022/07/30 06:33:05;;;;;;;15.27;10.88;;;16.70;99.90;;;;;;5071544;28;20115;-67
2022/07/30 06:35:32;;;;;;;11.48;9.85;;;16.90;99.90;;;;;;5046776;28;20504;-67
2022/07/30 06:37:58;;;;;;;12.63;9.77;;;16.90;99.90;;;;;;5048082;28;20512;-67
2022/07/30 06:40:24;;;;;;;11.68;8.98;;;17.00;99.90;;;;;;5051262;28;20037;-67
2022/07/30 06:42:49;;;;;;;12.27;8.98;;;17.10;99.90;;;;;;5037333;28;20087;-67
2022/07/30 06:45:15;;;;;;;12.30;9.18;;;17.20;99.90;;;;;;5071553;28;20393;-67
2022/07/30 06:47:41;;;;;;;11.65;8.95;;;17.30;99.90;;;;;;5065784;28;20041;-67
2022/07/30 06:50:07;;;;;;;11.57;8.88;;;17.40;99.90;;;;;;5053725;28;20063;-67
2022/07/30 06:52:33;;;;;;;12.40;8.98;;;17.50;99.90;;;;;;5054626;28;20121;-67
2022/07/30 06:54:58;;;;;;;13.48;9.27;;;17.60;99.90;;;;;;5032631;28;20483;-67
2022/07/30 06:57:24;;;;;;;13.15;9.40;;;17.70;99.90;;;;;;5039482;28;20025;-67
2022/07/30 06:59:49;;;;;;;14.38;9.77;;;17.80;99.90;;;;;;5064978;28;20049;-67
2022/07/30 07:02:15;;;;;;;15.55;9.73;;;17.90;99.90;;;;;;5034228;28;20124;-67
2022/07/30 07:04:41;;;;;;;16.40;10.30;;;18.00;99.90;;;;;;5063525;28;20083;-67
2022/07/30 07:07:06;;;;;;;16.48;10.68;;;18.10;99.90;;;;;;5064447;28;20036;-67
2022/07/30 07:09:32;;;;;;;17.02;11.57;;;18.10;99.90;;;;;;5069701;28;20036;-67
2022/07/30 07:11:58;;;;;;;14.73;10.48;;;18.20;99.90;;;;;;5032229;28;20122;-67
2022/07/30 07:14:23;;;;;;;16.55;10.10;;;18.30;99.90;;;;;;5086694;28;20048;-67
2022/07/30 07:16:49;;;;;;;16.15;10.43;;;18.30;99.90;;;;;;5069857;28;20062;-67
2022/07/30 07:19:15;;;;;;;17.33;9.75;;;18.50;99.90;;;;;;5061042;28;20162;-67
2022/07/30 07:21:40;;;;;;;16.75;9.95;;;18.60;99.90;;;;;;5039557;28;20124;-67
2022/07/30 07:24:07;;;;;;;13.23;8.98;;;18.60;99.90;;;;;;5057070;28;20398;-68
2022/07/30 07:26:33;;;;;;;12.52;9.43;;;18.70;99.90;;;;;;5070001;28;20032;-68
2022/07/30 07:28:58;;;;;;;14.60;9.30;;;18.80;99.90;;;;;;5034062;28;20060;-67
2022/07/30 07:31:25;;;;;;;13.13;8.27;;;18.90;99.90;;;;;;5055358;28;20028;-67
2022/07/30 07:33:53;;;;;;;14.57;8.82;;;19.00;99.90;;;;;;5043882;28;20485;-71
2022/07/30 07:36:19;;;;;;;14.68;8.85;;;19.20;99.90;;;;;;5043128;28;20091;-70
2022/07/30 07:38:45;;;;;;;15.23;9.52;;;19.30;99.90;;;;;;5039440;28;20082;-71
2022/07/30 07:41:10;;;;;;;14.35;8.45;;;19.30;99.90;;;;;;5054763;28;20428;-67
2022/07/30 07:43:36;;;;;;;15.48;9.30;;;19.40;99.90;;;;;;5068852;28;20040;-68
2022/07/30 07:46:01;;;;;;;13.48;8.73;;;19.60;99.90;;;;;;5042954;28;20087;-68
2022/07/30 07:48:27;;;;;;;14.35;9.02;;;19.60;99.90;;;;;;5054460;28;20036;-68
2022/07/30 07:50:53;;;;;;;16.20;8.90;;;19.70;99.90;;;;;;5053783;28;20135;-68
2022/07/30 07:53:18;;;;;;;13.82;8.88;;;19.80;99.90;;;;;;5051758;28;20044;-68
2022/07/30 07:55:44;;;;;;;16.50;9.00;;;19.90;99.90;;;;;;5047832;28;20040;-68
2022/07/30 07:58:12;;;;;;;14.88;9.45;;;20.00;99.90;;;;;;5079172;28;20064;-68
2022/07/30 08:00:38;;;;;;;12.93;8.68;;;20.10;99.90;;;;;;5068266;28;20086;-68
2022/07/30 08:03:04;;;;;;;13.35;8.93;;;20.10;99.90;;;;;;5025220;28;20469;-68
2022/07/30 08:05:30;;;;;;;15.18;9.32;;;20.30;99.90;;;;;;5035453;28;20094;-68
2022/07/30 08:07:55;;;;;;;13.95;9.30;;;20.30;99.90;;;;;;5074063;28;20037;-68
2022/07/30 08:10:21;;;;;;;13.50;8.40;;;20.40;99.90;;;;;;5044999;28;20119;-68
2022/07/30 08:12:46;;;;;;;11.77;8.07;;;20.40;99.90;;;;;;5052905;28;20061;-68
2022/07/30 08:15:12;;;;;;;11.68;8.32;;;20.50;99.90;;;;;;5053395;28;20045;-68
2022/07/30 08:17:45;;;;;;;13.23;8.63;;;20.50;99.90;;;;;;5057141;28;20500;-68
2022/07/30 08:20:12;;;;;;;15.23;8.60;;;20.50;99.90;;;;;;5058914;28;20507;-68
2022/07/30 08:22:38;;;;;;;14.52;8.25;;;20.60;99.90;;;;;;5091008;28;20036;-68
2022/07/30 08:25:05;;;;;;;12.23;7.63;;;20.70;99.90;;;;;;5072175;28;20040;-68
2022/07/30 08:27:30;;;;;;;11.68;7.45;;;20.70;99.90;;;;;;5055710;28;20139;-68
2022/07/30 08:29:56;;;;;;;15.90;8.50;;;20.60;99.90;;;;;;5037228;28;20132;-68
2022/07/30 08:32:22;;;;;;;12.73;8.18;;;20.70;99.90;;;;;;5058666;28;20043;-68
2022/07/30 08:34:48;;;;;;;13.63;7.47;;;20.80;99.90;;;;;;5054514;28;20037;-68
2022/07/30 08:37:14;;;;;;;12.65;6.97;;;20.80;99.90;;;;;;5035256;28;20038;-68
2022/07/30 08:39:40;;;;;;;10.77;6.72;;;20.90;99.90;;;;;;5073718;28;20447;-70
2022/07/30 08:42:06;;;;;;;11.02;6.70;;;21.00;99.90;;;;;;5069764;28;20033;-73
2022/07/30 08:44:34;;;;;;;11.05;6.18;;;21.00;99.90;;;;;;5072277;28;20032;-72
2022/07/30 08:47:02;;;;;;;10.02;5.80;;;21.20;99.90;;;;;;5067959;28;20489;-73
2022/07/30 08:49:28;;;;;;;10.20;6.55;;;21.20;99.90;;;;;;5056758;28;20083;-72
2022/07/30 08:51:55;;;;;;;11.85;6.03;;;21.30;99.90;;;;;;5052631;28;20094;-73
2022/07/30 08:54:21;;;;;;;10.15;5.75;;;21.30;99.90;;;;;;5046624;28;20036;-73
2022/07/30 08:56:48;;;;;;;9.90;6.00;;;21.40;99.90;;;;;;5057527;28;20067;-73
2022/07/30 08:59:16;;;;;;;11.38;5.75;;;21.40;99.90;;;;;;5062289;28;20512;-73
2022/07/30 09:01:41;;;;;;;10.60;6.28;;;21.60;99.90;;;;;;5054545;28;20040;-73
2022/07/30 09:04:07;;;;;;;10.85;5.40;;;21.50;99.90;;;;;;5056968;28;20481;-73
2022/07/30 09:06:33;;;;;;;12.98;6.20;;;21.60;99.90;;;;;;5052128;28;20504;-73
2022/07/30 09:08:58;;;;;;;8.95;6.07;;;21.60;99.90;;;;;;5067057;28;20497;-73
2022/07/30 09:11:24;;;;;;;11.18;5.60;;;21.60;99.90;;;;;;5053271;28;20028;-73
2022/07/30 09:13:49;;;;;;;11.88;5.88;;;21.60;99.90;;;;;;5052057;28;20044;-73
2022/07/30 09:16:22;;;;;;;9.80;5.45;;;21.60;99.90;;;;;;5055900;28;20041;-73
2022/07/30 09:18:48;;;;;;;9.82;5.40;;;21.80;99.90;;;;;;5064383;28;20111;-73
2022/07/30 09:21:17;;;;;;;10.27;5.28;;;21.80;99.90;;;;;;5034784;28;20040;-73
2022/07/30 09:24:02;;;;;;;12.15;5.45;;;21.90;99.90;;;;;;5053353;28;20121;-73
2022/07/30 09:26:29;;;;;;;11.82;5.40;;;21.90;99.90;;;;;;5076731;28;20045;-68
2022/07/30 09:29:13;;;;;;;13.23;5.40;;;22.00;99.90;;;;;;5061845;28;20561;-68
2022/07/30 09:31:59;;;;;;;8.73;4.70;;;22.10;99.90;;;;;;5073152;28;20048;-68
2022/07/30 09:34:27;;;;;;;10.20;4.85;;;22.10;99.90;;;;;;5051035;28;20124;-68
2022/07/30 09:36:54;;;;;;;9.40;4.20;;;22.10;99.90;;;;;;5055448;28;20040;-68
2022/07/30 09:39:30;;;;;;;10.25;4.60;;;22.10;99.90;;;;;;5068153;28;20033;-68
2022/07/30 09:41:57;;;;;;;6.75;4.22;;;22.20;99.90;;;;;;5057602;28;20045;-68
2022/07/30 09:44:24;;;;;;;10.75;4.53;;;22.30;99.90;;;;;;5050169;28;20036;-68
2022/07/30 09:46:50;;;;;;;7.72;3.95;;;22.40;99.90;;;;;;5055774;28;20083;-68
2022/07/30 09:49:18;;;;;;;8.15;4.60;;;22.40;99.90;;;;;;5050128;28;20041;-68
2022/07/30 09:51:44;;;;;;;8.55;4.35;;;22.40;99.90;;;;;;5049022;28;20099;-68
2022/07/30 09:54:10;;;;;;;9.18;4.10;;;22.50;99.90;;;;;;5057202;28;20039;-68
2022/07/30 09:56:35;;;;;;;8.57;4.68;;;22.50;99.90;;;;;;5057945;28;20036;-68
2022/07/30 09:59:01;;;;;;;11.48;3.97;;;22.60;99.90;;;;;;5039006;28;20040;-68
2022/07/30 10:01:27;;;;;;;8.55;4.22;;;22.80;99.90;;;;;;5043328;28;20489;-68
2022/07/30 10:03:53;;;;;;;9.88;4.10;;;22.80;99.90;;;;;;5035549;28;20041;-68
2022/07/30 10:06:32;;;;;;;10.30;4.30;;;22.80;99.90;;;;;;5065648;28;20094;-68
2022/07/30 10:08:58;;;;;;;9.05;4.60;;;22.70;99.90;;;;;;5055833;28;20048;-68
2022/07/30 10:11:25;;;;;;;8.95;3.97;;;22.70;99.90;;;;;;5039092;28;20037;-68
2022/07/30 10:13:54;;;;;;;10.55;3.72;;;22.80;99.90;;;;;;5049432;28;20140;-68
2022/07/30 10:16:20;;;;;;;6.63;3.38;;;22.80;99.90;;;;;;5053739;28;20040;-68
2022/07/30 10:18:46;;;;;;;7.57;3.85;;;22.90;99.90;;;;;;5045458;28;20040;-68
2022/07/30 10:21:12;;;;;;;7.15;3.95;;;22.90;99.90;;;;;;5053649;28;20037;-68
2022/07/30 10:23:39;;;;;;;8.95;3.85;;;23.00;99.90;;;;;;5055338;28;20142;-68
2022/07/30 10:26:06;;;;;;;9.30;3.63;;;23.20;99.90;;;;;;5060493;28;20086;-68
2022/07/30 10:28:32;;;;;;;9.10;3.50;;;23.20;99.90;;;;;;5050143;28;20467;-69
2022/07/30 10:30:58;;;;;;;6.80;3.33;;;23.30;99.90;;;;;;5051075;28;20048;-68
2022/07/30 10:33:29;;;;;;;10.10;3.60;;;23.20;99.90;;;;;;5068924;28;20049;-68
2022/07/30 10:35:55;;;;;;;6.47;3.50;;;23.30;99.90;;;;;;5035762;28;20486;-68
2022/07/30 10:38:29;;;;;;;9.57;3.40;;;23.30;99.90;;;;;;5031646;28;20550;-68
2022/07/30 10:41:09;;;;;;;7.80;3.42;;;23.30;99.90;;;;;;5039824;28;20071;-68
2022/07/30 10:43:38;;;;;;;8.05;3.70;;;23.40;99.90;;;;;;5071804;28;20040;-68
2022/07/30 10:46:32;;;;;;;7.35;3.25;;;23.40;99.90;;;;;;5048401;28;20491;-68
2022/07/30 10:49:13;;;;;;;10.45;3.75;;;23.30;99.90;;;;;;5070486;28;20044;-68
2022/07/30 10:51:57;;;;;;;8.60;4.20;;;23.10;99.90;;;;;;5060105;28;20037;-68
2022/07/30 10:54:43;;;;;;;10.35;3.47;;;23.10;99.90;;;;;;5043262;28;20033;-68
2022/07/30 10:57:17;;;;;;;8.63;3.60;;;23.10;99.90;;;;;;5031722;28;20116;-68
2022/07/30 10:59:56;;;;;;;9.90;3.63;;;22.90;99.90;;;;;;5037189;28;20414;-68
2022/07/30 11:02:23;;;;;;;8.02;3.30;;;22.80;99.90;;;;;;5048218;28;20480;-68
2022/07/30 11:04:49;;;;;;;5.70;3.10;;;23.00;99.90;;;;;;5050226;28;20090;-68
2022/07/30 11:07:20;;;;;;;8.57;3.53;;;23.00;99.90;;;;;;5058688;28;20397;-68
2022/07/30 11:09:47;;;;;;;;;;;23.00;99.90;;;;;;5047528;28;20051;-68
2022/07/30 11:12:12;;;;;;;7.72;3.78;;;22.90;99.90;;;;;;5053501;28;19923;-68
2022/07/30 11:14:47;;;;;;;9.93;3.80;;;23.10;99.90;;;;;;5068743;28;20041;-68
2022/07/30 11:17:14;;;;;;;8.40;3.83;;;23.30;99.90;;;;;;5057018;28;20109;-68
2022/07/30 11:20:02;;;;;;;8.90;3.22;;;23.30;99.90;;;;;;5071440;28;20504;-68
2022/07/30 11:22:34;;;;;;;7.15;3.70;;;23.30;99.90;;;;;;5031601;28;20049;-68
2022/07/30 11:25:00;;;;;;;9.07;3.25;;;23.50;99.90;;;;;;5038830;28;20051;-68
2022/07/30 11:27:37;;;;;;;5.88;3.13;;;23.50;99.90;;;;;;5052383;28;20040;-68
2022/07/30 11:30:31;;;;;;;9.32;3.83;;;23.50;99.90;;;;;;5038870;28;20064;-68
2022/07/30 11:33:16;;;;;;;9.43;3.45;;;23.50;99.90;;;;;;5039139;28;20049;-68
2022/07/30 11:35:42;;;;;;;9.82;3.55;;;23.30;99.90;;;;;;5047067;28;20106;-69
2022/07/30 11:38:18;;;;;;;8.93;3.28;;;23.30;99.90;;;;;;5064215;28;20033;-68
2022/07/30 11:40:50;;;;;;;6.82;3.58;;;23.10;99.90;;;;;;5074590;28;20047;-68
2022/07/30 11:43:28;;;;;;;6.38;3.25;;;23.10;99.90;;;;;;5029436;28;20037;-68
2022/07/30 11:46:07;;;;;;;6.78;3.13;;;23.10;99.90;;;;;;5038201;28;20056;-68
2022/07/30 11:48:34;;;;;;;8.30;3.38;;;23.30;99.90;;;;;;5034672;28;20041;-68
2022/07/30 11:50:59;;;;;;;7.07;3.17;;;23.40;99.90;;;;;;5040339;28;20059;-68
2022/07/30 11:53:25;;;;;;;8.02;3.00;;;23.30;99.90;;;;;;5036352;28;20473;-68
2022/07/30 11:55:52;;;;;;;7.40;2.95;;;23.30;99.90;;;;;;5054019;28;20072;-68
2022/07/30 11:58:35;;;;;;;7.75;2.70;;;23.40;99.90;;;;;;5074171;28;20037;-68
2022/07/30 12:01:15;;;;;;;6.30;2.95;;;23.50;99.90;;;;;;5056872;28;20041;-68
2022/07/30 12:03:43;;;;;;;8.82;2.92;;;23.70;99.90;;;;;;5034758;28;20443;-68
2022/07/30 12:06:18;;;;;;;6.30;2.60;;;23.60;99.90;;;;;;5037640;28;20098;-68
2022/07/30 12:08:52;;;;;;;8.30;2.78;;;23.60;99.90;;;;;;5054671;28;20098;-68
2022/07/30 12:11:19;;;;;;;6.20;2.55;;;23.60;99.90;;;;;;5054003;28;20076;-68
2022/07/30 12:13:56;;;;;;;4.85;2.50;;;23.50;99.90;;;;;;5070337;28;20078;-68
2022/07/30 12:16:22;;;;;;;8.68;2.70;;;23.50;99.90;;;;;;5042469;28;20091;-68
2022/07/30 12:18:47;;;;;;;6.07;2.53;;;23.40;99.90;;;;;;5017535;28;20037;-68
2022/07/30 12:21:17;;;;;;;6.47;2.72;;;23.30;99.90;;;;;;5037673;28;20037;-68
2022/07/30 12:23:57;;;;;;;6.50;2.78;;;23.40;99.90;;;;;;5034823;28;20037;-68
2022/07/30 12:26:25;;;;;;;5.03;2.40;;;23.40;99.90;;;;;;5040024;28;20040;-68
2022/07/30 12:28:51;;;;;;;6.55;2.40;;;23.20;99.90;;;;;;5037741;28;20056;-68
2022/07/30 12:31:17;;;;;;;5.60;2.60;;;23.10;99.90;;;;;;5037581;28;20068;-69
2022/07/30 12:33:42;;;;;;;7.38;2.30;;;23.10;99.90;;;;;;5040804;28;20481;-69
2022/07/30 12:36:09;;;;;;;5.60;2.45;;;23.20;99.90;;;;;;5072527;28;20040;-69
2022/07/30 12:38:47;;;;;;;6.80;2.58;;;23.30;99.90;;;;;;5070125;28;20044;-69
2022/07/30 12:41:13;;;;;;;8.55;2.60;;;23.30;99.90;;;;;;5066497;28;20148;-69
2022/07/30 12:43:47;;;;;;;5.70;2.47;;;23.40;99.90;;;;;;5071249;28;20123;-69
2022/07/30 12:46:16;;;;;;;8.13;2.45;;;23.50;99.90;;;;;;5056870;28;20051;-69
2022/07/30 12:49:08;;;;;;;6.43;2.65;;;23.40;99.10;;;;;;5067700;28;20036;-69